Date,TemperatureHighF,TemperatureAvgF,TemperatureLowF,DewpointHighF,DewpointAvgF,DewpointLowF,HumidityHigh,HumidityAvg,HumidityLow,PressureMaxIn,PressureMinIn,WindSpeedMaxMPH,WindSpeedAvgMPH,GustSpeedMaxMPH,PrecipitationSumIn
2013-1-1,31,22,10,24,12,0,78,64,49,28.55,28.41,13,3,13,0.00
2013-1-2,34,19,10,14,9,0,86,66,38,28.73,28.52,15,3,15,0.00
2013-1-3,27,21,14,23,15,11,93,77,51,28.73,28.52,14,4,14,0.00
2013-1-4,38,29,26,22,16,10,83,59,39,28.61,28.44,25,6,25,0.00
2013-1-5,41,30,27,22,18,14,75,61,39,28.85,28.55,22,3,22,0.00
2013-1-6,38,32,27,32,24,17,98,73,56,28.67,28.47,15,4,15,0.00
2013-1-7,37,30,26,31,21,16,93,69,47,28.94,28.61,22,5,22,0.00
2013-1-8,39,32,25,18,16,13,71,52,40,28.91,28.76,17,4,17,0.00
2013-1-9,48,37,29,31,21,13,67,52,34,28.91,28.58,25,7,25,28.83
2013-1-10,45,36,31,24,20,18,69,54,39,29.14,28.82,18,2,18,0.00
2013-1-11,41,36,31,37,27,19,98,70,50,29.03,28.55,24,8,24,0.08
2013-1-12,51,44,38,47,43,36,98,96,84,28.67,28.58,13,5,13,0.00
2013-1-13,54,50,46,49,48,46,98,91,80,28.64,28.41,21,6,21,28.91
2013-1-14,51,38,28,49,26,14,95,66,39,28.91,28.41,23,4,23,26.30
2013-1-15,36,28,25,18,15,12,68,58,42,28.91,28.70,10,2,10,0.00
2013-1-16,33,29,26,28,24,16,94,80,59,28.79,28.35,13,4,13,26.47
2013-1-17,32,25,15,27,17,10,89,74,56,28.70,28.41,15,5,15,0.00
2013-1-18,28,19,9,11,4,-1,84,55,33,28.94,28.64,20,5,20,0.00
2013-1-19,50,41,25,22,14,5,43,34,27,28.67,28.29,20,8,20,0.00
2013-1-20,47,31,17,30,12,2,80,46,30,28.61,28.11,29,8,29,0.00
2013-1-21,23,17,11,13,7,0,80,64,51,28.61,28.38,9,3,9,0.00
2013-1-22,20,7,-2,7,-11,-26,74,47,25,28.70,28.41,3,0,3,0.00
2013-1-23,17,5,-2,-3,-18,-26,44,33,29,28.73,28.61,0,0,0,0.00
2013-1-24,18,8,1,4,-10,-19,59,43,36,29.00,28.58,11,2,11,0.00
2013-1-25,16,8,0,0,-8,-16,52,47,45,28.97,28.58,5,2,5,0.00
2013-1-26,26,13,2,12,-3,-12,79,48,38,28.91,28.58,4,4,4,0.00
2013-1-27,34,21,12,14,8,-5,82,60,37,29.06,28.88,4,4,4,0.00
2013-1-28,41,31,23,40,26,7,98,83,46,28.94,28.47,7,3,7,0.00
2013-1-29,52,44,36,51,43,35,98,98,93,28.64,28.44,12,3,12,0.08
2013-1-30,59,54,50,54,50,46,96,88,77,28.50,27.99,25,9,25,0.00
2013-1-31,32,24,20,21,11,4,74,56,41,28.26,27.96,15,6,15,18.92
2013-2-1,26,18,13,12,6,0,80,61,40,28.76,28.26,6,6,6,18.92
2013-2-2,20,14,8,12,6,-2,85,70,44,28.76,28.50,6,6,6,0.00
2013-2-3,27,18,11,17,12,7,90,76,50,28.52,28.29,8,4,8,0.00
2013-2-4,26,17,12,10,7,0,84,65,38,28.52,28.41,8,3,8,0.00
2013-2-5,34,22,14,17,12,9,86,66,40,28.50,28.38,1,1,1,0.00
2013-2-6,36,23,12,22,9,1,91,57,30,28.91,28.41,1,1,1,10.86
2013-2-7,34,23,10,14,8,-1,75,53,36,28.97,28.67,1,1,1,0.00
2013-2-8,34,29,16,33,25,10,98,84,47,28.70,28.32,20,5,20,0.00
2013-2-9,30,17,9,12,7,0,81,67,44,28.94,28.52,13,3,13,0.00
2013-2-10,40,26,8,14,7,-1,77,47,26,28.94,28.61,20,5,20,0.00
2013-2-11,47,36,32,36,25,12,88,67,41,28.67,28.17,27,8,27,0.00
2013-2-12,34,31,28,22,18,16,68,60,49,28.55,28.29,26,5,26,0.00
2013-2-13,42,32,26,19,17,16,74,56,35,28.52,28.29,12,3,12,0.00
2013-2-14,44,32,23,34,23,15,98,74,34,28.50,28.35,17,4,17,0.00
2013-2-15,43,33,24,32,20,12,89,58,31,28.61,28.38,22,5,22,0.00
2013-2-16,32,22,16,13,8,2,72,55,32,28.61,28.44,10,2,10,0.00
2013-2-17,24,15,9,13,1,-10,81,56,37,28.67,28.41,17,4,17,0.00
2013-2-18,34,22,6,9,-1,-13,73,37,30,28.82,28.52,15,4,15,0.00
2013-2-19,37,32,22,32,19,4,90,61,34,28.55,28.17,25,6,25,0.00
2013-2-20,24,19,16,10,6,3,68,55,43,28.61,28.32,24,5,24,0.00
2013-2-21,26,19,15,13,7,2,81,60,43,28.91,28.52,19,4,19,0.00
2013-2-22,32,25,18,22,17,0,90,72,50,28.94,28.64,22,5,22,0.00
2013-2-23,36,32,29,33,28,0,100,86,69,28.64,28.44,21,5,21,0.00
2013-2-24,34,29,26,30,20,15,94,71,48,28.61,28.41,17,2,17,29.78
2013-2-25,40,30,25,24,18,13,83,62,38,28.79,28.61,12,2,12,0.00
2013-2-26,41,32,22,32,22,14,98,67,44,28.79,28.41,22,4,22,0.00
2013-2-27,38,34,31,35,33,30,98,96,85,28.47,28.14,5,5,5,0.00
2013-2-28,43,35,31,34,30,28,98,85,58,28.29,28.14,5,5,5,0.00
2013-3-1,40,29,23,29,24,18,92,79,50,28.50,28.26,5,5,5,0.00
2013-3-2,30,24,20,19,16,12,88,73,49,28.47,28.41,10,3,10,0.00
2013-3-3,32,23,20,19,14,10,86,71,45,28.47,28.35,7,2,7,0.00
2013-3-4,34,25,18,20,14,9,81,65,40,28.58,28.41,12,3,12,0.00
2013-3-5,41,27,22,23,17,12,97,68,37,28.64,28.52,11,3,11,0.00
2013-3-6,38,28,24,26,23,20,96,80,56,28.61,28.47,13,6,13,0.00
2013-3-8,41,34,27,20,16,14,67,49,39,28.94,28.85,3,0,3,0.00
2013-3-9,49,37,25,30,21,17,87,56,30,28.97,28.82,0,0,0,0.00
2013-3-10,59,48,39,21,17,14,42,29,19,28.85,28.64,0,0,0,0.00
2013-3-11,52,49,45,45,24,15,81,39,27,28.64,28.35,0,0,0,0.00
2013-3-12,51,42,32,48,37,28,95,82,59,28.50,28.32,0,0,0,0.00
2013-3-13,43,32,22,28,18,8,85,59,38,28.52,28.41,0,0,0,0.00
2013-3-14,35,25,16,16,7,-2,79,50,25,28.61,28.47,0,0,0,0.00
2013-3-15,35,29,19,25,17,6,77,61,52,28.58,28.29,0,0,0,0.00
2013-3-16,31,25,21,18,15,10,83,65,54,28.52,28.35,0,0,0,0.00
2013-3-17,35,24,16,19,13,5,87,66,34,28.85,28.52,0,0,0,0.00
2013-3-18,20,9,0,10,4,0,64,27,64,28.88,28.38,0,0,0,0.00
2013-3-19,0,0,0,0,0,0,0,0,100,28.61,28.26,4,0,4,0.00
2013-3-20,21,2,0,9,1,0,63,6,54,28.41,28.35,0,0,0,0.00
2013-3-21,33,22,12,20,11,2,90,67,31,28.41,28.29,0,0,0,0.00
2013-3-22,40,27,20,24,18,0,95,69,40,28.50,28.29,57,0,57,0.00
2013-3-23,41,31,25,22,18,0,82,61,39,28.55,28.44,0,0,0,0.00
2013-3-24,40,31,24,22,17,0,82,56,37,28.58,28.32,0,0,0,0.00
2013-3-25,40,32,27,24,21,19,75,64,46,28.32,28.17,0,0,0,0.00
2013-3-26,49,36,28,26,22,0,78,57,32,28.52,28.29,0,0,0,0.00
2013-3-27,49,35,28,31,24,18,97,67,32,28.61,28.47,0,0,0,0.00
2013-3-28,48,36,31,31,26,0,95,68,37,28.79,28.58,172,0,172,0.00
2013-3-29,54,39,33,29,25,0,81,58,34,28.79,28.70,0,0,0,0.00
2013-3-30,56,42,29,23,17,0,67,40,18,28.76,28.64,0,0,0,0.00
2013-3-31,52,41,34,40,26,0,98,59,31,28.67,28.26,0,0,0,0.00
2013-4-1,43,36,24,40,23,0,98,64,23,28.52,28.17,115,0,115,0.00
2013-4-2,38,28,19,18,8,0,72,46,27,28.67,28.50,0,0,0,0.00
2013-4-3,39,28,22,18,11,0,72,49,29,28.91,28.64,0,0,0,0.45
2013-4-4,55,38,20,15,10,0,71,36,16,28.91,28.52,0,0,0,0.00
2013-4-5,54,40,27,20,10,-1,48,31,18,28.70,28.47,0,0,0,0.00
2013-4-6,52,37,22,16,9,0,64,34,16,28.88,28.64,0,0,229,0.00
2013-4-7,68,53,34,38,22,0,68,31,20,28.67,28.38,0,0,229,0.00
2013-4-8,68,53,34,41,32,0,78,50,24,28.70,28.41,0,0,0,0.00
2013-4-9,72,58,46,46,38,29,97,52,22,28.70,28.41,0,0,0,0.34
2013-4-10,48,46,45,48,45,45,98,98,97,28.61,28.44,0,0,0,0.49
2013-4-11,46,46,46,45,45,45,98,98,98,28.67,28.50,0,0,0,0.00
2013-4-12,46,46,46,45,45,45,98,98,98,28.52,28.20,0,0,0,0.20
2013-4-13,46,46,46,45,45,45,98,98,98,28.55,28.35,0,0,0,0.00
2013-4-14,46,46,46,45,45,45,98,98,98,28.79,28.52,0,0,0,0.00
2013-4-15,46,46,46,45,45,45,98,98,98,28.76,28.67,0,0,0,0.00
2013-4-16,46,46,46,45,45,45,98,98,98,28.82,28.58,0,0,0,0.00
2013-4-17,46,46,46,45,45,45,98,98,98,28.94,28.76,0,0,0,0.00
2013-4-18,46,45,0,45,45,0,98,97,98,28.82,28.35,0,0,0,0.00
2013-4-30,79,77,0,51,50,0,37,36,37,28.82,28.76,0,0,6,0.00
2013-5-1,79,76,0,51,19,-18,37,20,2,28.97,28.82,7,0,7,0.00
2013-5-2,76,76,76,-18,-18,-18,2,2,2,29.00,28.91,0,0,0,0.00
2013-5-5,76,76,76,-18,-18,-18,2,2,2,29.00,29.00,0,0,0,0.00
2013-5-6,76,76,76,-18,-18,-18,2,2,2,29.00,29.00,0,0,0,0.00
2013-5-9,76,76,76,-18,-18,-18,2,2,2,29.00,29.00,0,0,0,0.00
2013-5-10,76,76,76,-18,-18,-18,2,2,2,29.00,29.00,0,0,0,0.00
2013-5-31,-200,0,200,-100,-100,-100,0,0,100,0.00,40.00,0,-999,0,0.00
2013-6-3,72,70,71,53,49,-100,52,49,48,29.81,29.72,4,-20,4,0.00
2013-6-4,74,73,71,52,48,42,49,42,32,29.97,29.81,7,0,7,0.01
2013-6-5,76,69,55,48,43,36,60,41,29,30.01,29.87,14,2,14,0.15
2013-6-6,59,55,52,56,50,42,94,82,60,29.89,29.69,17,2,17,0.90
2013-6-7,64,60,58,61,58,55,98,94,89,29.70,29.59,11,2,11,0.06
2013-6-8,67,60,56,57,55,52,98,86,65,29.93,29.60,10,1,10,0.00
2013-6-9,73,63,51,57,53,50,94,71,48,30.03,29.92,11,2,11,0.00
2013-6-10,64,63,61,61,56,53,93,80,69,29.97,29.76,10,1,11,0.07
2013-6-12,72,67,62,56,54,51,79,64,51,29.75,29.62,11,2,11,0.34
2013-6-13,65,60,55,63,57,53,97,90,69,29.62,29.28,21,5,24,0.36
2013-6-14,70,61,52,57,54,51,97,78,56,29.80,29.57,14,3,15,0.00
2013-6-15,74,64,52,55,49,38,95,63,30,29.87,29.80,13,2,14,0.00
2013-6-16,71,64,59,64,56,50,93,75,64,29.82,29.54,20,4,20,0.12
2013-6-17,81,69,60,63,57,49,93,68,35,29.75,29.68,16,3,17,0.00
2013-6-18,65,60,54,59,53,44,94,79,52,29.84,29.70,14,3,14,0.00
2013-6-19,66,58,50,49,44,40,80,62,42,30.04,29.84,12,3,14,0.00
2013-6-20,80,65,50,55,46,40,72,52,29,30.09,30.01,17,2,17,0.00
2013-6-21,83,71,57,59,51,39,69,50,30,30.09,30.00,8,1,9,0.00
2013-6-22,86,75,65,64,61,58,84,63,42,30.02,29.85,13,4,14,0.00
2013-6-23,90,76,69,70,66,63,91,72,42,29.91,29.82,16,3,20,0.22
2013-6-24,87,77,68,70,66,59,89,70,46,29.88,29.77,11,2,11,0.00
2013-6-25,83,75,69,68,64,60,84,69,52,29.80,29.62,18,3,21,0.00
2013-6-26,83,72,67,68,65,62,88,77,54,29.67,29.61,11,2,11,0.00
2013-6-27,80,71,65,69,65,63,97,84,61,29.65,29.42,11,1,12,0.95
2013-6-28,75,65,62,67,63,61,98,94,69,29.42,29.28,13,2,15,0.72
2013-6-29,73,66,60,66,62,60,99,90,73,29.53,29.32,12,1,12,0.47
2013-6-30,79,68,60,68,63,59,98,85,58,29.75,29.52,12,2,12,0.12
2013-7-1,66,64,63,65,63,59,98,95,85,29.85,29.72,12,2,13,0.21
2013-7-2,84,71,61,72,66,60,99,87,59,29.93,29.84,12,2,12,0.00
2013-7-3,86,76,68,72,69,67,95,79,56,29.99,29.91,13,3,13,0.00
2013-7-4,86,77,71,72,69,66,90,76,56,30.00,29.92,13,3,13,0.00
2013-7-5,87,78,70,72,68,65,91,74,51,29.97,29.86,13,2,14,0.00
2013-7-6,86,76,68,70,68,65,95,77,52,29.96,29.85,9,1,10,0.00
2013-7-7,86,77,69,71,68,64,93,75,52,29.88,29.75,13,2,15,0.00
2013-7-8,84,71,65,71,65,61,94,83,54,29.89,29.80,14,1,21,0.82
2013-7-9,82,72,67,70,67,64,93,85,66,29.89,29.76,15,2,19,0.02
2013-7-10,85,74,67,72,68,60,95,83,61,29.76,29.57,18,4,20,0.07
2013-7-11,74,68,60,63,58,52,89,72,50,29.85,29.64,10,2,11,0.00
2013-7-12,72,66,60,63,59,55,96,81,63,30.00,29.84,13,3,15,0.00
2013-7-13,75,69,62,69,64,57,95,84,76,30.10,29.98,7,1,8,0.00
2013-7-14,89,78,68,72,69,66,96,76,53,30.15,30.05,11,2,11,0.00
2013-7-15,86,78,72,74,71,65,95,79,60,30.11,30.04,9,1,11,0.00
2013-7-16,88,79,69,70,66,60,82,65,47,30.11,30.02,11,1,11,0.00
2013-7-17,93,81,70,76,69,64,85,68,42,30.06,29.89,9,1,9,0.00
2013-7-18,92,79,73,74,71,65,91,78,45,29.93,29.79,19,1,24,0.33
2013-7-19,91,81,72,73,69,63,89,69,47,29.80,29.57,17,4,23,0.00
2013-7-20,80,72,66,69,64,61,87,77,63,29.71,29.53,17,2,18,0.00
2013-7-21,78,70,63,65,61,59,94,76,58,29.83,29.71,11,2,13,0.00
2013-7-22,81,70,60,69,64,58,95,83,61,29.83,29.62,9,1,10,0.76
2013-7-23,84,71,65,68,65,61,98,83,49,29.62,29.44,10,1,11,1.30
2013-7-24,66,60,52,64,52,48,95,77,57,29.88,29.49,14,3,16,0.00
2013-7-25,69,59,47,53,50,46,97,74,48,29.96,29.88,13,2,14,0.00
2013-7-26,76,65,52,58,54,50,90,69,48,29.96,29.85,8,1,8,0.00
2013-7-27,77,68,60,66,60,54,95,79,62,29.85,29.69,13,2,13,0.28
2013-7-28,77,67,58,65,62,56,96,84,55,29.82,29.66,12,2,14,0.32
2013-7-29,70,61,55,58,55,52,98,80,59,29.99,29.81,10,1,10,0.00
2013-7-30,73,64,54,60,56,52,94,77,55,30.05,29.98,8,1,8,0.00
2013-7-31,78,68,55,62,57,54,95,71,49,30.00,29.79,8,1,9,0.00
2013-8-1,78,68,62,66,61,58,96,80,57,29.79,29.61,13,2,13,0.03
2013-8-2,75,66,58,64,58,54,95,79,55,29.74,29.67,14,2,14,0.19
2013-8-3,76,68,60,60,54,48,87,64,39,29.76,29.66,12,2,12,0.00
2013-8-4,70,61,54,57,52,49,90,73,50,29.88,29.75,15,2,16,0.00
2013-8-5,71,61,50,55,50,46,94,69,43,29.95,29.87,8,1,8,0.00
2013-8-6,78,67,56,60,54,47,80,65,39,29.91,29.84,11,2,14,0.00
2013-8-7,71,67,63,66,62,57,89,84,78,29.87,29.75,15,4,18,0.00
2013-8-8,85,70,63,74,66,62,98,87,63,29.83,29.73,12,3,14,1.24
2013-8-9,77,70,62,71,66,57,98,90,70,29.77,29.66,10,0,10,0.44
2013-8-10,75,65,57,60,54,48,92,68,40,29.93,29.77,14,1,16,0.00
2013-8-11,76,64,54,57,53,50,91,69,46,29.96,29.88,8,1,10,0.00
2013-8-12,77,68,57,62,57,51,83,70,51,29.89,29.71,9,1,12,0.00
2013-8-13,75,65,53,66,58,46,97,79,58,29.71,29.56,12,1,14,0.72
2013-8-14,66,56,49,54,48,44,94,76,50,29.93,29.67,11,1,13,0.01
2013-8-15,71,60,49,56,50,46,92,73,51,30.00,29.91,11,1,12,0.00
2013-8-16,73,63,54,56,52,47,87,69,44,30.05,29.96,10,1,10,0.00
2013-8-17,77,66,54,60,53,48,90,66,37,30.14,30.05,6,1,6,0.00
2013-8-18,76,67,59,62,56,52,87,70,52,30.09,29.95,9,1,9,0.00
2013-8-19,80,69,60,64,59,56,88,73,47,29.96,29.86,9,1,11,0.00
2013-8-20,83,70,59,64,59,55,90,69,42,29.98,29.89,9,1,10,0.00
2013-8-21,84,73,62,66,60,56,86,65,40,30.01,29.86,10,1,10,0.00
2013-8-22,84,72,64,69,64,59,93,77,49,29.88,29.71,15,2,15,0.30
2013-8-23,73,66,56,63,56,52,92,73,52,30.03,29.80,14,3,15,0.00
2013-8-24,73,62,52,57,52,47,97,71,42,30.19,30.03,9,1,11,0.00
2013-8-25,80,69,56,59,54,51,84,62,38,30.20,29.98,13,2,15,0.00
2013-8-26,79,70,66,69,62,56,93,78,65,30.04,29.73,17,2,19,0.30
2013-8-27,84,73,66,71,67,64,97,83,56,29.78,29.70,8,1,9,0.00
2013-8-28,79,72,68,71,68,66,97,88,71,29.76,29.66,10,2,11,0.12
2013-8-29,80,71,64,70,66,63,97,85,64,29.86,29.75,9,1,9,0.00
2013-8-30,86,74,62,69,64,60,98,75,45,29.85,29.61,12,1,12,0.00
2013-8-31,84,75,67,71,68,61,93,79,61,29.69,29.55,12,3,13,0.01
2013-9-1,82,72,66,69,67,64,97,84,65,29.67,29.58,11,1,13,0.01
2013-9-2,84,72,64,72,66,58,96,82,56,29.62,29.49,14,2,14,0.09
2013-9-3,67,61,56,58,56,53,93,84,69,29.78,29.60,11,1,13,0.01
2013-9-4,77,65,53,59,54,49,94,70,39,29.85,29.78,15,2,18,0.00
2013-9-5,67,58,48,57,47,38,95,69,44,30.05,29.78,16,2,17,0.01
2013-9-6,69,57,44,46,42,38,85,60,36,30.13,29.96,9,1,10,0.00
2013-9-7,66,60,54,56,49,42,92,68,57,29.96,29.72,12,2,13,0.00
2013-9-8,63,58,48,61,51,43,96,78,50,29.96,29.68,18,4,21,0.02
2013-9-9,75,60,46,57,48,41,88,68,46,30.03,29.87,20,4,20,0.00
2013-9-10,90,74,62,74,66,57,93,77,54,29.87,29.80,15,4,17,0.02
2013-9-11,92,78,68,74,70,65,94,77,45,29.88,29.74,15,4,16,0.26
2013-9-12,78,68,58,70,64,57,97,89,71,29.74,29.54,11,2,16,0.17
2013-9-13,58,54,48,57,51,46,96,91,81,29.82,29.56,15,2,16,0.60
2013-9-14,60,50,45,47,43,38,96,79,52,29.99,29.81,12,1,12,0.03
2013-9-15,67,55,44,51,44,37,83,68,49,30.03,29.91,9,1,11,0.00
2013-9-16,60,51,42,53,47,38,95,88,72,30.20,29.91,13,3,16,0.02
2013-9-17,62,50,37,43,40,36,97,72,43,30.33,30.16,6,1,7,0.00
2013-9-18,72,58,46,48,42,39,77,58,36,30.16,29.97,12,2,13,0.00
2013-9-19,76,63,52,56,49,43,79,62,42,29.98,29.86,9,2,11,0.00
2013-9-20,79,67,56,62,57,54,93,73,51,29.88,29.67,17,4,19,0.00
2013-9-21,66,61,52,60,58,50,97,88,74,29.67,29.45,22,4,23,0.73
2013-9-22,53,49,46,50,44,39,95,82,68,29.85,29.54,11,1,11,0.00
2013-9-23,57,48,42,43,41,39,95,77,53,29.98,29.85,12,2,14,0.01
2013-9-24,63,51,41,50,43,38,90,75,52,29.98,29.84,11,2,13,0.00
2013-9-25,67,55,43,50,45,38,90,70,48,29.86,29.78,10,2,11,0.00
2013-9-26,67,55,46,54,48,39,95,77,57,29.98,29.84,12,2,12,0.00
2013-9-27,68,56,46,54,50,45,96,80,48,30.10,29.98,10,2,10,0.00
2013-9-28,71,58,47,56,50,46,98,78,48,30.15,30.03,9,2,12,0.01
2013-9-29,72,60,51,52,48,46,88,67,43,30.04,29.86,16,3,16,0.00
2013-9-30,76,63,52,57,52,47,83,68,48,29.88,29.77,9,2,9,0.00
2013-10-1,74,64,57,59,54,49,92,72,44,29.85,29.77,11,1,12,0.00
2013-10-2,77,65,58,62,56,50,87,74,47,29.91,29.76,11,2,15,0.00
2013-10-3,75,62,51,60,50,44,90,68,40,29.97,29.85,8,1,9,0.01
2013-10-4,78,67,64,67,64,60,97,88,62,29.88,29.80,13,2,16,0.25
2013-10-5,73,63,59,68,62,59,99,96,82,29.91,29.84,12,2,12,0.09
2013-10-6,81,69,59,68,64,59,99,85,60,29.86,29.63,27,4,28,0.03
2013-10-7,71,60,49,64,53,40,95,77,55,29.87,29.44,23,5,30,0.62
2013-10-8,61,51,43,47,42,37,96,74,44,30.20,29.87,12,2,12,0.00
2013-10-9,66,53,44,47,41,32,94,65,31,30.26,30.14,9,1,9,0.00
2013-10-10,64,55,46,47,40,27,83,58,26,30.14,30.00,8,2,9,0.00
2013-10-11,61,54,47,55,46,41,96,77,51,30.00,29.94,10,1,10,0.16
2013-10-12,74,60,47,51,41,32,84,54,23,30.06,29.96,12,2,12,0.00
2013-10-13,70,61,55,55,50,41,86,70,50,30.14,30.06,14,4,14,0.00
2013-10-14,60,54,52,54,52,49,98,93,68,30.15,30.10,11,1,12,0.33
2013-10-15,67,57,51,56,52,48,98,85,64,30.12,29.85,15,2,15,0.00
2013-10-16,60,58,55,56,50,44,96,76,61,29.86,29.64,23,6,24,0.17
2013-10-17,64,55,46,56,48,45,97,81,53,29.73,29.49,11,2,12,0.76
2013-10-18,57,50,47,50,42,37,97,73,57,29.78,29.54,14,3,16,0.03
2013-10-19,58,50,44,46,41,37,88,72,54,29.78,29.50,23,4,24,0.08
2013-10-20,49,44,40,41,38,36,89,80,68,29.86,29.60,13,2,14,0.00
2013-10-21,64,53,44,39,37,34,76,56,35,29.88,29.65,23,6,23,0.00
2013-10-22,53,46,39,45,35,27,91,67,44,29.69,29.58,16,3,16,0.03
2013-10-23,49,39,33,38,32,29,95,78,50,29.68,29.51,11,1,16,0.07
2013-10-24,47,37,32,34,31,25,94,79,45,29.87,29.65,20,3,21,0.01
2013-10-25,46,38,32,37,33,31,97,83,64,30.04,29.87,13,1,13,0.03
2013-10-26,46,40,36,32,28,24,80,62,44,30.01,29.67,23,6,27,0.00
2013-10-27,43,40,36,37,33,28,90,77,61,29.93,29.68,13,2,13,0.01
2013-10-28,48,40,35,36,31,26,79,72,62,30.22,29.92,13,3,14,0.00
2013-10-29,45,37,28,30,27,21,82,67,50,30.31,30.16,7,1,8,0.00
2013-10-30,59,46,37,40,36,28,90,68,46,30.16,29.97,9,1,10,0.00
2013-10-31,60,55,45,56,50,38,94,86,69,29.97,29.34,23,6,25,0.48
2013-11-1,62,57,50,57,46,38,94,70,44,29.50,29.10,30,6,32,0.24
2013-11-2,50,46,35,45,40,34,93,82,68,29.77,29.45,17,3,19,0.09
2013-11-3,35,31,25,34,24,18,94,77,56,30.40,29.77,15,3,15,0.01
2013-11-4,40,32,23,25,19,14,90,61,36,30.53,30.36,17,2,19,0.00
2013-11-5,50,42,34,37,26,17,73,52,41,30.40,30.22,19,6,21,0.00
2013-11-6,61,52,44,50,44,37,84,74,60,30.23,29.70,23,7,26,0.02
2013-11-7,56,42,33,51,38,30,96,83,69,29.83,29.63,14,2,16,0.45
2013-11-8,38,34,30,31,28,25,91,79,62,30.09,29.80,17,1,17,0.01
2013-11-9,45,38,31,30,28,24,82,66,53,30.10,29.69,18,4,18,0.00
2013-11-10,47,41,36,40,34,26,93,76,54,29.99,29.65,17,3,24,0.11
2013-11-11,43,37,28,34,29,24,92,73,52,30.02,29.80,19,3,21,0.03
2013-11-12,31,25,22,25,18,14,91,74,57,30.23,29.93,14,1,17,0.00
2013-11-13,36,27,16,22,18,13,91,70,52,30.29,30.00,18,2,18,0.01
2013-11-14,51,39,30,18,13,8,51,34,19,30.01,29.92,18,5,19,0.00
2013-11-15,57,46,40,24,16,8,41,31,16,30.00,29.92,15,4,15,0.00
2013-11-16,58,49,40,40,32,23,76,53,39,30.10,29.94,16,3,20,0.00
2013-11-17,55,51,47,53,48,40,94,89,76,29.95,29.27,34,9,34,0.21
2013-11-18,56,47,34,54,34,25,94,63,41,29.72,29.26,30,6,34,0.07
2013-11-19,36,31,25,25,22,19,79,70,56,30.29,29.72,16,2,17,0.00
2013-11-20,40,30,21,23,16,9,89,61,31,30.46,30.28,14,2,14,0.00
2013-11-21,39,34,30,34,22,9,89,63,40,30.37,30.15,19,5,20,0.03
2013-11-22,46,40,33,45,38,28,97,92,81,30.16,29.83,16,2,16,0.13
2013-11-23,35,26,14,28,19,5,91,74,52,30.01,29.80,20,3,28,0.00
2013-11-24,21,14,10,13,8,5,88,76,60,30.28,29.98,22,1,22,0.00
2013-11-25,31,23,13,16,10,7,86,61,38,30.29,30.03,17,4,20,0.00
2013-11-26,32,30,28,31,26,11,97,86,47,30.05,29.60,16,2,17,0.00
2013-11-27,33,28,20,32,26,15,97,90,82,29.72,29.43,10,1,13,0.00
2013-11-28,26,20,14,20,15,10,92,82,65,30.29,29.72,14,1,14,0.00
2013-11-29,26,20,14,19,16,11,93,83,66,30.61,30.29,8,1,8,0.00
2013-11-30,28,22,13,19,15,10,90,76,65,30.60,30.13,23,5,24,0.00
2013-12-1,37,30,26,31,25,19,94,82,68,30.13,29.85,19,3,19,0.02
2013-12-2,37,34,32,33,31,30,93,88,82,29.85,29.71,6,1,7,0.07
2013-12-3,38,33,29,33,29,26,95,87,79,29.86,29.74,7,1,7,0.00
2013-12-4,50,40,29,42,35,26,96,84,68,29.92,29.83,18,2,19,0.00
2013-12-5,54,49,39,51,46,37,94,89,83,29.83,29.64,25,6,25,0.13
2013-12-6,39,32,27,37,29,24,95,87,75,30.10,29.81,6,0,6,0.40
2013-12-7,28,24,18,26,19,13,94,79,64,30.41,30.07,13,1,14,0.00
2013-12-8,24,20,14,20,14,10,91,77,62,30.45,30.11,13,1,15,0.00
2013-12-9,38,31,23,33,27,20,93,84,70,30.11,29.73,26,6,26,0.01
2013-12-10,29,24,20,21,16,6,89,72,51,29.92,29.75,17,2,19,0.00
2013-12-11,27,20,12,18,14,6,90,78,60,30.14,29.91,21,2,21,0.00
2013-12-12,18,13,8,10,6,3,83,71,55,30.20,29.93,16,3,20,0.00
2013-12-13,24,18,12,20,14,7,90,84,71,30.24,29.90,17,2,17,0.00
2013-12-14,23,15,8,21,12,6,94,89,78,30.29,29.65,20,2,20,0.00
2013-12-15,27,23,18,24,20,12,94,85,73,29.71,29.47,16,3,18,0.00
2013-12-16,21,15,9,14,10,6,91,78,58,30.04,29.71,15,1,16,0.00
2013-12-17,28,18,7,23,14,4,92,88,77,30.03,29.80,16,2,16,0.00
2013-12-18,29,24,19,24,20,16,91,84,72,29.95,29.81,14,2,14,0.00
2013-12-19,44,33,23,31,24,16,78,70,58,29.92,29.81,15,3,18,0.05
2013-12-20,47,43,39,45,37,30,94,79,56,29.87,29.66,16,5,17,0.05
2013-12-21,55,48,34,53,47,33,98,94,88,29.68,29.60,17,4,20,0.65
2013-12-22,62,50,31,54,45,30,99,86,70,29.78,29.39,29,5,29,0.09
2013-12-23,42,36,25,40,32,18,98,86,67,30.08,29.77,14,1,18,0.01
2013-12-24,26,20,9,24,16,4,92,84,74,30.31,30.00,15,1,15,0.00
2013-12-25,21,13,3,12,6,0,89,74,57,30.40,30.12,15,2,17,0.00
2013-12-26,31,24,20,25,19,12,85,78,68,30.14,29.95,16,3,17,0.00
2013-12-27,32,27,20,26,22,16,86,80,76,30.15,30.00,12,2,15,0.00
2013-12-28,47,40,29,32,28,24,83,64,54,30.00,29.82,18,4,19,0.00
2013-12-29,42,38,33,36,31,25,97,78,52,29.82,29.49,15,3,15,0.57
2013-12-30,35,20,12,32,15,8,92,82,64,30.05,29.55,10,1,11,0.01
2013-12-31,24,16,12,17,11,8,90,83,60,30.12,29.85,21,2,22,0.00
2014-1-1,19,14,12,14,10,8,90,84,69,30.27,30.11,12,2,13,0.00
2014-1-2,12,8,3,9,5,0,91,88,84,30.13,29.78,17,7,17,0.00